Disclaimer

Please do not use the information listed here in-flight or in-navigation, as they are not provided to us by the airports but are provided by volunteers, so they might be outdated.

Search


Regions


Airport information page

Radio informations:
GHARDAIA TWR - 118.9 MHz
GHARDAIA RDO - 8894 MHz

Airport informations:
Latitude: 32° 23' 02.78" N
Longitude: 003° 47' 38.81" E
Elevation: 1512 feet - 461 meters
Operating hours: 24 hour operations
Operating agency: Civil government, landing fees and diplomatic clearance may be required
Timezone: UTC+1 - Dates notified by NOTAM
Fuel: Jet A1, without icing nhibitor.

100/130 octane gasoline, leaded, MIL-L-5572F (GREEN)

Runway information:
12/30 - 10171 x 197 feet< - >3100 x 60 meters
18/36 - 7874 x 148 feet< - >2400 x 45 meters

Recent METARs:
DAUG 160100Z 00000KT CAVOK 09/M00 Q1028
DAUG 160200Z 00000KT CAVOK 08/M00 Q1027
DAUG 160200Z 00000KT CAVOK 08/M00 Q1027

Airport on the map: